createdAt,value
2018-11-21T00:01:31.362Z,19.00
2018-11-21T00:04:00.125Z,19.00
2018-11-21T00:06:28.885Z,19.00
2018-11-21T00:08:57.623Z,19.00
2018-11-21T00:11:26.361Z,19.00
2018-11-21T00:13:55.117Z,19.00
2018-11-21T00:16:23.850Z,19.00
2018-11-21T00:18:52.590Z,19.00
2018-11-21T00:21:21.324Z,19.00
2018-11-21T00:23:50.045Z,19.00
2018-11-21T00:26:18.798Z,19.00
2018-11-21T00:28:47.534Z,19.00
2018-11-21T00:31:16.285Z,19.00
2018-11-21T00:33:45.031Z,19.00
2018-11-21T00:36:13.786Z,19.00
2018-11-21T00:38:42.534Z,19.00
2018-11-21T00:41:11.279Z,19.00
2018-11-21T00:43:40.012Z,19.00
2018-11-21T00:46:08.728Z,19.00
2018-11-21T00:48:37.559Z,19.00
2018-11-21T00:51:06.299Z,19.00
2018-11-21T00:53:35.051Z,19.00
2018-11-21T00:56:03.883Z,19.00
2018-11-21T00:58:32.633Z,18.90
2018-11-21T01:01:01.381Z,19.00
2018-11-21T01:03:30.111Z,18.90
2018-11-21T01:05:58.859Z,18.90
2018-11-21T01:08:27.590Z,18.90
2018-11-21T01:10:56.379Z,18.90
2018-11-21T01:13:25.105Z,18.90
2018-11-21T01:15:53.834Z,18.90
2018-11-21T01:18:22.585Z,18.90
2018-11-21T01:20:51.324Z,18.90
2018-11-21T01:23:20.051Z,18.90
2018-11-21T01:25:48.795Z,18.90
2018-11-21T01:28:17.538Z,18.90
2018-11-21T01:30:46.267Z,18.90
2018-11-21T01:33:14.993Z,18.90
2018-11-21T01:35:43.731Z,18.90
2018-11-21T01:38:12.460Z,18.90
2018-11-21T01:40:41.204Z,18.90
2018-11-21T01:43:09.954Z,18.90
2018-11-21T01:45:38.692Z,19.00
2018-11-21T01:48:07.410Z,19.00
2018-11-21T01:50:36.134Z,18.90
2018-11-21T01:53:04.889Z,18.90
2018-11-21T01:55:33.656Z,18.90
2018-11-21T01:58:02.399Z,18.90
2018-11-21T02:00:31.124Z,18.90
2018-11-21T02:02:59.859Z,18.90
2018-11-21T02:05:28.606Z,18.90
2018-11-21T02:07:57.374Z,18.90
2018-11-21T02:10:26.127Z,18.90
2018-11-21T02:12:54.865Z,18.90
2018-11-21T02:15:23.598Z,18.90
2018-11-21T02:17:52.396Z,18.90
2018-11-21T02:20:21.148Z,18.90
2018-11-21T02:22:49.887Z,18.90
2018-11-21T02:25:18.620Z,18.90
2018-11-21T02:27:47.370Z,18.90
2018-11-21T02:30:16.174Z,18.90
2018-11-21T02:32:44.933Z,18.90
2018-11-21T02:35:13.672Z,18.90
2018-11-21T02:37:42.406Z,18.90
2018-11-21T02:40:11.152Z,18.90
2018-11-21T02:42:39.898Z,18.90
2018-11-21T02:45:08.655Z,18.90
2018-11-21T02:47:37.388Z,18.90
2018-11-21T02:50:06.683Z,18.90
2018-11-21T02:52:35.431Z,18.90
2018-11-21T02:55:04.190Z,18.90
2018-11-21T02:57:34.054Z,18.90
2018-11-21T03:00:10.899Z,18.90
2018-11-21T03:02:39.642Z,18.90
2018-11-21T03:05:08.398Z,18.90
2018-11-21T03:07:37.141Z,18.90
2018-11-21T03:10:06.524Z,18.90
2018-11-21T03:12:35.265Z,18.90
2018-11-21T03:15:04.036Z,18.90
2018-11-21T03:17:32.802Z,18.90
2018-11-21T03:20:01.725Z,18.90
2018-11-21T03:22:30.467Z,18.90
2018-11-21T03:24:59.198Z,18.90
2018-11-21T03:27:27.947Z,18.90
2018-11-21T03:29:56.688Z,18.90
2018-11-21T03:32:25.457Z,18.90
2018-11-21T03:34:54.219Z,18.90
2018-11-21T03:37:22.954Z,19.00
2018-11-21T03:39:51.682Z,18.90
2018-11-21T03:42:20.430Z,18.90
2018-11-21T03:44:49.177Z,18.90
2018-11-21T03:47:17.905Z,18.90
2018-11-21T03:49:46.643Z,18.90
2018-11-21T03:52:15.595Z,18.90
2018-11-21T03:54:44.344Z,18.90
2018-11-21T03:57:13.104Z,18.90
2018-11-21T03:59:41.858Z,18.90
2018-11-21T04:02:10.614Z,18.90
2018-11-21T04:04:39.406Z,18.90
2018-11-21T04:07:08.136Z,19.00
2018-11-21T04:09:36.870Z,18.90
2018-11-21T04:12:05.625Z,18.90
2018-11-21T04:14:34.353Z,18.90
2018-11-21T04:17:03.078Z,18.90
2018-11-21T04:19:31.838Z,18.90
2018-11-21T04:22:00.588Z,19.00
2018-11-21T04:24:29.317Z,18.90
2018-11-21T04:26:58.048Z,18.90
2018-11-21T04:29:26.790Z,18.90
2018-11-21T04:31:55.536Z,18.90
2018-11-21T04:34:24.288Z,18.90
2018-11-21T04:36:53.020Z,19.00
2018-11-21T04:39:21.769Z,18.90
2018-11-21T04:41:50.508Z,18.90
2018-11-21T04:44:19.258Z,18.90
2018-11-21T04:46:48.013Z,19.00
2018-11-21T04:49:16.769Z,19.00
2018-11-21T04:51:45.480Z,19.00
2018-11-21T04:54:14.213Z,18.90
2018-11-21T04:56:42.957Z,18.90
2018-11-21T04:59:11.709Z,19.00
2018-11-21T05:01:40.437Z,18.90
2018-11-21T05:04:09.216Z,18.90
2018-11-21T05:06:37.944Z,18.90
2018-11-21T05:09:08.933Z,18.90
2018-11-21T05:11:37.668Z,18.90
2018-11-21T05:14:06.417Z,18.90
2018-11-21T05:16:35.193Z,19.00
2018-11-21T05:19:04.101Z,18.90
2018-11-21T05:21:32.843Z,18.90
2018-11-21T05:24:01.582Z,18.90
2018-11-21T05:26:30.325Z,18.90
2018-11-21T05:28:59.105Z,18.90
2018-11-21T05:31:27.866Z,18.90
2018-11-21T05:33:56.582Z,18.90
2018-11-21T05:36:25.330Z,18.90
2018-11-21T05:38:54.080Z,18.90
2018-11-21T05:41:22.816Z,18.90
2018-11-21T05:43:51.608Z,18.90
2018-11-21T05:46:20.354Z,18.90
2018-11-21T05:48:49.096Z,18.90
2018-11-21T05:51:17.860Z,18.90
2018-11-21T05:53:46.618Z,18.90
2018-11-21T05:56:15.390Z,18.90
2018-11-21T05:58:44.134Z,18.90
2018-11-21T06:01:12.863Z,18.90
2018-11-21T06:03:41.608Z,18.90
2018-11-21T06:06:10.403Z,18.90
2018-11-21T06:08:39.085Z,18.90
2018-11-21T06:11:07.850Z,18.90
2018-11-21T06:13:36.592Z,18.90
2018-11-21T06:16:05.717Z,18.90
2018-11-21T06:18:34.449Z,18.90
2018-11-21T06:21:03.211Z,19.00
2018-11-21T06:23:31.943Z,19.00
2018-11-21T06:26:00.729Z,19.00
2018-11-21T06:28:29.603Z,19.00
2018-11-21T06:30:58.351Z,19.00
2018-11-21T06:33:27.075Z,19.00
2018-11-21T06:35:55.837Z,19.00
2018-11-21T06:38:24.577Z,19.00
2018-11-21T06:40:53.322Z,19.00
2018-11-21T06:43:22.067Z,19.00
2018-11-21T06:45:50.805Z,19.00
2018-11-21T06:48:19.545Z,18.90
2018-11-21T06:50:48.286Z,19.00
2018-11-21T06:53:17.033Z,19.00
2018-11-21T06:55:45.776Z,19.00
2018-11-21T06:58:14.643Z,19.00
2018-11-21T07:00:43.398Z,19.00
2018-11-21T07:03:12.146Z,19.00
2018-11-21T07:05:40.885Z,19.00
2018-11-21T07:08:09.656Z,19.00
2018-11-21T07:10:38.413Z,19.00
2018-11-21T07:13:10.941Z,19.00
2018-11-21T07:15:35.896Z,19.00
2018-11-21T07:18:04.697Z,18.90
2018-11-21T07:20:33.439Z,18.90
2018-11-21T07:23:02.172Z,18.90
2018-11-21T07:25:30.908Z,18.80
2018-11-21T07:27:59.653Z,18.90
2018-11-21T07:30:28.392Z,18.80
2018-11-21T07:32:57.147Z,18.80
2018-11-21T07:35:25.886Z,18.80
2018-11-21T07:37:54.778Z,18.90
2018-11-21T07:40:23.535Z,18.80
2018-11-21T07:42:52.284Z,18.80
2018-11-21T07:45:21.004Z,18.80
2018-11-21T07:47:49.757Z,18.80
2018-11-21T07:50:19.925Z,18.80
2018-11-21T07:52:48.685Z,18.80
2018-11-21T07:55:17.416Z,18.90
2018-11-21T07:57:54.101Z,18.90
2018-11-21T08:01:12.230Z,18.90
2018-11-21T08:03:42.971Z,19.00
2018-11-21T08:06:17.269Z,19.10
2018-11-21T08:09:14.101Z,19.20
2018-11-21T08:12:07.857Z,19.20
2018-11-21T08:15:01.786Z,19.30
2018-11-21T08:17:54.219Z,19.40
2018-11-21T08:20:49.041Z,19.60
2018-11-21T08:23:40.096Z,19.70
2018-11-21T08:26:26.828Z,19.90
2018-11-21T08:28:55.550Z,20.00
2018-11-21T08:31:24.296Z,20.20
2018-11-21T08:33:53.035Z,20.20
2018-11-21T08:36:21.773Z,20.30
2018-11-21T08:38:50.500Z,20.40
2018-11-21T08:41:19.242Z,20.50
2018-11-21T08:43:47.981Z,20.60
2018-11-21T08:46:16.709Z,20.60
2018-11-21T08:48:45.422Z,20.60
2018-11-21T08:51:14.176Z,20.70
2018-11-21T08:53:42.914Z,20.70
2018-11-21T08:56:11.663Z,20.70
2018-11-21T08:58:40.394Z,20.80
2018-11-21T09:01:09.132Z,20.60
2018-11-21T09:03:37.865Z,20.70
2018-11-21T09:06:06.614Z,20.70
2018-11-21T09:08:35.340Z,20.70
2018-11-21T09:11:04.088Z,20.60
2018-11-21T09:13:32.883Z,20.50
2018-11-21T09:16:01.605Z,20.60
2018-11-21T09:18:30.358Z,20.60
2018-11-21T09:20:59.115Z,20.50
2018-11-21T09:23:27.860Z,20.40
2018-11-21T09:25:56.584Z,20.20
2018-11-21T09:28:25.327Z,20.10
2018-11-21T09:30:54.065Z,20.00
2018-11-21T09:33:22.834Z,19.90
2018-11-21T09:35:51.579Z,19.80
2018-11-21T09:38:20.311Z,19.70
2018-11-21T09:40:49.037Z,19.70
2018-11-21T09:43:17.790Z,19.70
2018-11-21T09:45:46.531Z,19.70
2018-11-21T09:48:15.261Z,19.60
2018-11-21T09:50:43.989Z,19.60
2018-11-21T09:53:12.748Z,19.70
2018-11-21T09:55:41.480Z,19.60
2018-11-21T09:58:10.201Z,19.60
2018-11-21T10:01:15.961Z,19.60
2018-11-21T10:03:44.713Z,19.50
2018-11-21T10:06:18.808Z,19.50
2018-11-21T10:08:52.135Z,19.50
2018-11-21T10:11:21.133Z,19.40
2018-11-21T10:13:50.031Z,19.40
2018-11-21T10:16:18.783Z,19.40
2018-11-21T10:18:51.903Z,19.40
2018-11-21T10:21:24.998Z,19.50
2018-11-21T10:23:53.732Z,19.50
2018-11-21T10:26:22.534Z,19.40
2018-11-21T10:28:52.094Z,19.50
2018-11-21T10:31:20.877Z,19.70
2018-11-21T10:33:49.623Z,19.60
2018-11-21T10:36:18.384Z,19.60
2018-11-21T10:38:47.131Z,19.60
2018-11-21T10:41:15.871Z,19.50
2018-11-21T10:43:44.649Z,19.50
2018-11-21T10:46:14.132Z,19.40
2018-11-21T10:48:42.862Z,19.40
2018-11-21T10:51:11.625Z,19.30
2018-11-21T10:53:40.361Z,19.40
2018-11-21T10:56:09.111Z,19.40
2018-11-21T10:58:37.870Z,19.40
2018-11-21T11:01:24.574Z,19.40
2018-11-21T11:04:21.451Z,19.40
2018-11-21T11:07:08.117Z,19.40
2018-11-21T11:09:49.803Z,19.40
2018-11-21T11:12:36.623Z,19.40
2018-11-21T11:15:34.270Z,19.40
2018-11-21T11:18:37.367Z,19.40
2018-11-21T11:21:24.178Z,19.40
2018-11-21T11:24:12.160Z,19.30
2018-11-21T11:27:02.708Z,19.30
2018-11-21T11:29:49.196Z,19.30
2018-11-21T11:32:46.278Z,19.30
2018-11-21T11:35:41.689Z,19.30
2018-11-21T11:38:31.575Z,19.30
2018-11-21T11:41:34.743Z,19.30
2018-11-21T11:44:31.229Z,19.20
2018-11-21T11:47:22.012Z,19.20
2018-11-21T11:50:13.633Z,19.20
2018-11-21T11:53:00.686Z,19.20
2018-11-21T11:55:54.021Z,19.20
2018-11-21T11:58:40.688Z,19.10
2018-11-21T12:01:27.827Z,19.20
2018-11-21T12:04:21.555Z,19.20
2018-11-21T12:07:02.689Z,19.20
2018-11-21T12:09:49.273Z,19.20
2018-11-21T12:12:31.169Z,19.20
2018-11-21T12:15:21.907Z,19.20
2018-11-21T12:18:12.445Z,19.20
2018-11-21T12:21:12.658Z,19.20
2018-11-21T12:24:03.885Z,19.20
2018-11-21T12:26:55.172Z,19.20
2018-11-21T12:29:42.032Z,19.20
2018-11-21T12:32:39.293Z,19.20
2018-11-21T12:35:36.464Z,19.20
2018-11-21T12:38:23.712Z,19.20
2018-11-21T12:41:01.677Z,19.10
2018-11-21T12:43:56.748Z,19.20
2018-11-21T12:46:36.145Z,19.20
2018-11-21T12:49:23.288Z,19.20
2018-11-21T12:52:07.943Z,19.20
2018-11-21T12:55:02.198Z,19.20
2018-11-21T12:57:49.042Z,19.20
2018-11-21T13:00:35.696Z,19.20
2018-11-21T13:03:42.118Z,19.20
2018-11-21T13:06:28.729Z,19.10
2018-11-21T13:09:09.267Z,19.10
2018-11-21T13:11:55.913Z,19.10
2018-11-21T13:14:58.880Z,19.10
2018-11-21T13:17:49.454Z,19.10
2018-11-21T13:20:49.602Z,19.10
2018-11-21T13:23:43.215Z,19.10
2018-11-21T13:26:29.584Z,19.10
2018-11-21T13:29:17.363Z,19.10
2018-11-21T13:31:53.310Z,19.20
2018-11-21T13:34:42.123Z,19.20
2018-11-21T13:37:31.892Z,19.20
2018-11-21T13:40:18.277Z,19.20
2018-11-21T13:43:15.331Z,19.20
2018-11-21T13:46:02.065Z,19.20
2018-11-21T13:48:48.802Z,19.20
2018-11-21T13:51:39.564Z,19.20
2018-11-21T13:54:30.351Z,19.20
2018-11-21T13:56:59.102Z,19.20
2018-11-21T13:59:27.856Z,19.20
2018-11-21T14:01:56.594Z,19.10
2018-11-21T14:04:25.320Z,19.20
2018-11-21T14:06:54.086Z,19.20
2018-11-21T14:09:23.514Z,19.20
2018-11-21T14:11:52.286Z,19.20
2018-11-21T14:14:21.040Z,19.20
2018-11-21T14:16:49.790Z,19.20
2018-11-21T14:19:18.532Z,19.20
2018-11-21T14:21:47.284Z,19.20
2018-11-21T14:24:16.014Z,19.20
2018-11-21T14:26:44.778Z,19.20
2018-11-21T14:29:13.515Z,19.20
2018-11-21T14:31:42.266Z,19.20
2018-11-21T14:34:10.993Z,19.20
2018-11-21T14:36:39.746Z,19.20
2018-11-21T14:39:12.656Z,19.20
2018-11-21T14:41:42.488Z,19.10
2018-11-21T14:44:11.250Z,19.10
2018-11-21T14:46:41.039Z,19.10
2018-11-21T14:49:09.843Z,19.10
2018-11-21T14:51:38.981Z,19.10
2018-11-21T14:54:08.252Z,19.10
2018-11-21T14:56:37.166Z,19.10
